Time;durP1;ratioP1;P1;durP2;ratioP2;P2;SDS_P1;SDS_P2;PMS_P1;PMS_P2;Temp;Humidity;BMP_temperature;BMP_pressure;BME280_temperature;BME280_humidity;BME280_pressure;Samples;Min_cycle;Max_cycle;Signal;HPM_P1;HPM_P2
2023/03/23 00:01:12;;;;;;;24.23;3.58;;;10.90;99.90;;;;;;5039759;28;20132;-48
2023/03/23 00:03:39;;;;;;;26.58;5.53;;;10.80;99.90;;;;;;5038826;28;20120;-47
2023/03/23 00:06:06;;;;;;;23.50;3.70;;;10.90;99.90;;;;;;5033259;28;20021;-50
2023/03/23 00:08:37;;;;;;;32.15;4.50;;;10.80;99.90;;;;;;5032921;28;20394;-44
2023/03/23 00:11:04;;;;;;;25.30;3.63;;;10.90;99.90;;;;;;5038603;28;20083;-47
2023/03/23 00:13:31;;;;;;;24.77;4.35;;;10.90;99.90;;;;;;5040239;28;20037;-52
2023/03/23 00:15:57;;;;;;;28.83;4.30;;;10.90;99.90;;;;;;5036474;28;20029;-49
2023/03/23 00:18:23;;;;;;;26.75;5.20;;;10.90;99.90;;;;;;5032142;28;20041;-44
2023/03/23 00:20:54;;;;;;;32.00;4.82;;;10.90;99.90;;;;;;5045716;28;20100;-44
2023/03/23 00:23:23;;;;;;;23.35;3.60;;;10.90;99.90;;;;;;5043119;28;20048;-48
2023/03/23 00:25:52;;;;;;;29.50;4.60;;;10.90;99.90;;;;;;5032794;28;20036;-43
2023/03/23 00:28:24;;;;;;;26.70;4.65;;;10.90;99.90;;;;;;5037165;28;20494;-49
2023/03/23 00:31:01;;;;;;;32.08;5.05;;;11.00;99.90;;;;;;5042728;28;20074;-45
2023/03/23 00:33:30;;;;;;;35.67;6.30;;;11.00;99.90;;;;;;5044174;28;20026;-42
2023/03/23 00:35:56;;;;;;;31.90;6.45;;;11.00;99.90;;;;;;5046589;28;20017;-42
2023/03/23 00:38:23;;;;;;;38.60;5.93;;;11.00;99.90;;;;;;5050792;28;20039;-42
2023/03/23 00:40:49;;;;;;;27.10;4.20;;;11.00;99.90;;;;;;5050863;28;20059;-51
2023/03/23 00:43:19;;;;;;;27.17;4.97;;;11.00;99.90;;;;;;5050008;28;20091;-42
2023/03/23 00:45:52;;;;;;;29.58;4.85;;;11.00;99.90;;;;;;5036373;28;20017;-46
2023/03/23 00:48:21;;;;;;;28.90;5.13;;;11.00;99.90;;;;;;5044009;28;20025;-50
2023/03/23 00:50:47;;;;;;;27.80;4.97;;;11.00;99.90;;;;;;5050877;28;20028;-47
2023/03/23 00:53:13;;;;;;;23.90;3.97;;;11.00;99.90;;;;;;5050620;28;20145;-50
2023/03/23 00:55:43;;;;;;;25.75;4.78;;;11.00;99.90;;;;;;5050399;28;20021;-47
2023/03/23 00:58:10;;;;;;;37.03;5.53;;;11.00;99.90;;;;;;5032760;28;20032;-49
2023/03/23 01:00:36;;;;;;;32.38;4.85;;;11.00;99.90;;;;;;5050389;28;20033;-54
2023/03/23 01:03:02;;;;;;;31.05;4.30;;;11.00;99.90;;;;;;5050347;28;20075;-47
2023/03/23 01:05:31;;;;;;;30.67;4.55;;;11.00;99.90;;;;;;5050415;28;20055;-50
2023/03/23 01:08:00;;;;;;;;;;;11.00;99.90;;;;;;5050883;28;20732;-49
2023/03/23 01:10:32;;;;;;;32.90;5.90;;;11.00;99.90;;;;;;5050477;28;19912;-44
2023/03/23 01:13:00;;;;;;;29.67;4.70;;;10.90;99.90;;;;;;5036821;28;20025;-44
2023/03/23 01:15:26;;;;;;;35.08;5.03;;;10.90;99.90;;;;;;5050362;28;20025;-48
2023/03/23 01:17:52;;;;;;;25.88;4.70;;;10.90;99.90;;;;;;5018949;28;20037;-45
2023/03/23 01:20:18;;;;;;;29.42;6.20;;;10.90;99.90;;;;;;5050433;28;20597;-47
2023/03/23 01:22:44;;;;;;;35.38;5.05;;;10.90;99.90;;;;;;5050191;28;20401;-45
2023/03/23 01:25:11;;;;;;;37.65;5.03;;;10.80;99.90;;;;;;5032592;28;20021;-45
2023/03/23 01:27:38;;;;;;;35.83;4.68;;;10.80;99.90;;;;;;5050250;28;20032;-43
2023/03/23 01:30:05;;;;;;;28.05;4.57;;;10.90;99.90;;;;;;5032504;28;20013;-42
2023/03/23 01:32:31;;;;;;;34.70;5.40;;;10.90;99.90;;;;;;5050166;28;20057;-45
2023/03/23 01:34:58;;;;;;;34.28;6.32;;;10.90;99.90;;;;;;5032279;28;20103;-46
2023/03/23 01:37:26;;;;;;;41.03;6.05;;;10.90;99.90;;;;;;5050342;28;20033;-43
2023/03/23 01:39:56;;;;;;;35.38;4.60;;;10.90;99.90;;;;;;5050185;28;20095;-43
2023/03/23 01:42:23;;;;;;;36.75;5.32;;;10.90;99.90;;;;;;5036309;28;20033;-43
2023/03/23 01:44:49;;;;;;;35.72;5.40;;;10.90;99.90;;;;;;5049966;28;20119;-43
2023/03/23 01:47:17;;;;;;;34.17;6.30;;;10.80;99.90;;;;;;5042838;28;20029;-47
2023/03/23 01:49:48;;;;;;;32.55;5.13;;;10.80;99.90;;;;;;5050057;28;20017;-55
2023/03/23 01:52:29;;;;;;;37.28;5.25;;;10.80;99.90;;;;;;5031880;28;20025;-51
2023/03/23 01:54:56;;;;;;;35.28;6.15;;;10.90;99.90;;;;;;5051731;28;20025;-54
2023/03/23 01:57:26;;;;;;;32.20;4.65;;;10.90;99.90;;;;;;5053419;28;20071;-48
2023/03/23 01:59:55;;;;;;;29.35;5.72;;;10.80;99.90;;;;;;5053682;28;20096;-46
2023/03/23 02:02:24;;;;;;;29.65;5.55;;;10.80;99.90;;;;;;5053490;28;20105;-44
2023/03/23 02:04:51;;;;;;;40.65;5.50;;;10.80;99.90;;;;;;5053805;28;20061;-44
2023/03/23 02:07:20;;;;;;;35.55;6.43;;;10.80;99.90;;;;;;5053454;28;20033;-45
2023/03/23 02:09:45;;;;;;;43.65;5.45;;;10.80;99.90;;;;;;5053271;28;20133;-44
2023/03/23 02:12:11;;;;;;;39.67;5.55;;;10.70;99.90;;;;;;5053313;28;20172;-47
2023/03/23 02:14:37;;;;;;;43.55;5.60;;;10.70;99.90;;;;;;5053206;28;20473;-43
2023/03/23 02:17:09;;;;;;;41.85;5.72;;;10.70;99.90;;;;;;5052042;28;20032;-42
2023/03/23 02:20:07;;;;;;;32.80;5.28;;;10.60;99.90;;;;;;5052917;28;20045;-47
2023/03/23 02:22:47;;;;;;;33.22;5.43;;;10.60;99.90;;;;;;5052907;28;20040;-48
2023/03/23 02:25:38;;;;;;;42.40;5.82;;;10.70;99.90;;;;;;5035234;28;20033;-45
2023/03/23 02:28:17;;;;;;;42.22;5.80;;;10.70;99.90;;;;;;5052750;28;20045;-46
2023/03/23 02:31:01;;;;;;;30.48;5.13;;;10.70;99.90;;;;;;5052971;28;20025;-47
2023/03/23 02:33:36;;;;;;;37.38;5.30;;;10.60;99.90;;;;;;5020959;28;20024;-46
2023/03/23 02:36:13;;;;;;;32.55;5.57;;;10.50;99.90;;;;;;5052750;28;20144;-45
2023/03/23 02:38:44;;;;;;;42.08;6.60;;;10.50;99.90;;;;;;5052753;28;20037;-48
2023/03/23 02:41:11;;;;;;;41.28;5.93;;;10.40;99.90;;;;;;5052531;28;20024;-44
2023/03/23 02:43:43;;;;;;;49.85;7.07;;;10.40;99.90;;;;;;5052656;28;20048;-54
2023/03/23 02:46:10;;;;;;;40.40;6.35;;;10.40;99.90;;;;;;5047001;28;20036;-48
2023/03/23 02:48:39;;;;;;;46.33;5.35;;;10.30;99.90;;;;;;5040798;28;20026;-45
2023/03/23 02:51:07;;;;;;;36.05;5.40;;;10.30;99.90;;;;;;5052546;28;20103;-46
2023/03/23 02:53:36;;;;;;;39.88;5.70;;;10.30;99.90;;;;;;5052244;28;20032;-45
2023/03/23 02:56:04;;;;;;;43.17;6.15;;;10.30;99.90;;;;;;5052416;28;20482;-47
2023/03/23 02:58:31;;;;;;;43.92;7.13;;;10.30;99.90;;;;;;5052233;28;20482;-46
2023/03/23 03:00:58;;;;;;;40.75;7.57;;;10.20;99.90;;;;;;5052400;28;20017;-47
2023/03/23 03:03:27;;;;;;;42.97;5.55;;;10.20;99.90;;;;;;5052244;28;20037;-45
2023/03/23 03:06:18;;;;;;;39.72;6.80;;;10.20;99.90;;;;;;5051341;28;20478;-51
2023/03/23 03:08:47;;;;;;;53.47;8.05;;;10.10;99.90;;;;;;5052288;28;20029;-49
2023/03/23 03:11:16;;;;;;;52.55;6.70;;;10.00;99.90;;;;;;5051582;28;20025;-50
2023/03/23 03:14:10;;;;;;;48.05;6.30;;;10.00;99.90;;;;;;5052102;28;20107;-45
2023/03/23 03:16:52;;;;;;;46.33;6.00;;;10.00;99.90;;;;;;5048943;28;20049;-54
2023/03/23 03:19:33;;;;;;;43.45;7.53;;;10.00;99.90;;;;;;5051462;28;20045;-47
2023/03/23 03:21:59;;;;;;;45.60;6.50;;;9.90;99.90;;;;;;5051900;28;20043;-42
2023/03/23 03:24:28;;;;;;;39.60;5.57;;;9.90;99.90;;;;;;5051705;28;20021;-45
2023/03/23 03:26:57;;;;;;;40.90;6.25;;;9.80;99.90;;;;;;5051701;28;20436;-43
2023/03/23 03:29:29;;;;;;;40.75;7.15;;;9.80;99.90;;;;;;5032343;28;20029;-54
2023/03/23 03:31:56;;;;;;;35.05;5.97;;;9.80;99.90;;;;;;5033640;28;20394;-49
2023/03/23 03:34:23;;;;;;;34.63;7.15;;;9.80;99.90;;;;;;5051249;28;20466;-44
2023/03/23 03:36:51;;;;;;;31.17;6.13;;;9.80;99.90;;;;;;5037406;28;20074;-43
2023/03/23 03:39:20;;;;;;;38.13;5.43;;;9.80;99.90;;;;;;5051398;28;20071;-48
2023/03/23 03:41:46;;;;;;;38.88;5.88;;;9.80;99.90;;;;;;5051777;28;20041;-45
2023/03/23 03:44:12;;;;;;;38.58;5.50;;;9.80;99.90;;;;;;5051359;28;20430;-48
2023/03/23 03:46:38;;;;;;;36.03;4.80;;;9.80;99.90;;;;;;5046151;28;20017;-43
2023/03/23 03:49:06;;;;;;;35.75;5.13;;;9.90;99.90;;;;;;5027469;28;20398;-43
2023/03/23 03:51:34;;;;;;;42.07;7.20;;;10.00;99.90;;;;;;5051269;28;20013;-46
2023/03/23 03:54:00;;;;;;;39.50;5.18;;;10.00;99.90;;;;;;5051544;28;20504;-42
2023/03/23 03:56:26;;;;;;;37.47;5.75;;;10.00;99.90;;;;;;5051218;28;20060;-45
2023/03/23 03:58:52;;;;;;;33.05;4.70;;;10.00;99.90;;;;;;5051573;28;20516;-43
2023/03/23 04:01:22;;;;;;;30.25;5.20;;;10.00;99.90;;;;;;5051320;28;20025;-44
2023/03/23 04:03:48;;;;;;;32.15;4.15;;;9.90;99.90;;;;;;5051061;28;20052;-44
2023/03/23 04:06:14;;;;;;;30.75;3.95;;;9.80;99.90;;;;;;5050991;28;20029;-43
2023/03/23 04:08:41;;;;;;;35.38;4.25;;;9.80;99.90;;;;;;5050837;28;20028;-43
2023/03/23 04:11:12;;;;;;;24.67;3.70;;;9.80;99.90;;;;;;5033110;28;20032;-47
2023/03/23 04:13:38;;;;;;;21.98;3.00;;;9.80;99.90;;;;;;5050777;28;20041;-47
2023/03/23 04:16:04;;;;;;;20.98;3.72;;;9.70;99.90;;;;;;5043907;28;20498;-45
2023/03/23 04:18:32;;;;;;;29.50;4.93;;;9.60;99.90;;;;;;5046131;28;20397;-43
2023/03/23 04:20:59;;;;;;;27.15;3.63;;;9.60;99.90;;;;;;5050681;28;20021;-45
2023/03/23 04:23:26;;;;;;;23.70;3.05;;;9.50;99.90;;;;;;5050556;28;20033;-43
2023/03/23 04:25:56;;;;;;;21.63;3.45;;;9.40;99.90;;;;;;5032962;28;20107;-44
2023/03/23 04:28:23;;;;;;;22.88;3.30;;;9.30;99.90;;;;;;5050699;28;20382;-46
2023/03/23 04:30:53;;;;;;;21.50;3.55;;;9.30;99.90;;;;;;5032631;28;20052;-44
2023/03/23 04:33:21;;;;;;;17.88;2.85;;;9.30;99.90;;;;;;5050611;28;20028;-44
2023/03/23 04:35:47;;;;;;;26.48;3.45;;;9.30;99.90;;;;;;5050731;28;20027;-43
2023/03/23 04:38:15;;;;;;;25.23;5.00;;;9.30;99.90;;;;;;5050423;28;20074;-43
2023/03/23 04:40:42;;;;;;;18.35;3.53;;;9.30;99.90;;;;;;5050439;28;20074;-46
2023/03/23 04:43:12;;;;;;;15.73;3.65;;;9.30;99.90;;;;;;5050695;28;20040;-48
2023/03/23 04:45:41;;;;;;;20.50;2.80;;;9.30;99.90;;;;;;5028158;28;20025;-46
2023/03/23 04:48:07;;;;;;;27.15;3.33;;;9.40;99.90;;;;;;5050173;28;20111;-47
2023/03/23 04:50:34;;;;;;;20.70;3.25;;;9.40;99.90;;;;;;5048660;28;20027;-49
2023/03/23 04:53:04;;;;;;;16.08;2.63;;;9.40;99.90;;;;;;5050312;28;20112;-43
2023/03/23 04:55:35;;;;;;;17.95;2.67;;;9.40;99.90;;;;;;5050540;28;20025;-46
2023/03/23 04:58:05;;;;;;;28.98;3.47;;;9.40;99.90;;;;;;5050349;28;20126;-43
2023/03/23 05:00:31;;;;;;;;;;;9.30;99.90;;;;;;5050695;28;20224;-43
2023/03/23 05:02:57;;;;;;;22.73;3.45;;;9.20;99.90;;;;;;5049997;28;20387;-46
2023/03/23 05:05:24;;;;;;;28.85;3.13;;;9.10;99.90;;;;;;5032743;28;20027;-50
2023/03/23 05:07:50;;;;;;;27.92;4.03;;;9.00;99.90;;;;;;5050093;28;20389;-44
2023/03/23 05:10:16;;;;;;;26.13;3.08;;;9.00;99.90;;;;;;5050096;28;20025;-45
2023/03/23 05:12:42;;;;;;;18.00;3.08;;;8.90;99.90;;;;;;5043733;28;20029;-48
2023/03/23 05:15:10;;;;;;;21.90;3.22;;;8.90;99.90;;;;;;5049983;28;20021;-49
2023/03/23 05:17:36;;;;;;;23.38;3.53;;;8.90;99.90;;;;;;5049818;28;20119;-45
2023/03/23 05:20:04;;;;;;;25.80;4.22;;;8.90;99.90;;;;;;5050141;28;20123;-48
2023/03/23 05:22:33;;;;;;;24.50;3.75;;;8.90;99.90;;;;;;5050160;28;20033;-45
2023/03/23 05:25:02;;;;;;;37.60;4.88;;;8.90;99.90;;;;;;5049959;28;20107;-45
2023/03/23 05:27:30;;;;;;;25.98;4.03;;;9.00;99.90;;;;;;5032227;28;20389;-43
2023/03/23 05:30:00;;;;;;;25.88;4.13;;;9.00;99.90;;;;;;5051793;28;20096;-46
2023/03/23 05:32:29;;;;;;;19.90;3.42;;;9.20;99.90;;;;;;5053876;28;20375;-43
2023/03/23 05:34:59;;;;;;;32.75;4.28;;;9.20;99.90;;;;;;5053714;28;20017;-49
2023/03/23 05:37:26;;;;;;;28.17;4.45;;;9.30;99.90;;;;;;5053783;28;20112;-45
2023/03/23 05:39:55;;;;;;;35.92;5.78;;;9.30;99.90;;;;;;5053906;28;20032;-46
2023/03/23 05:42:23;;;;;;;40.28;4.40;;;9.40;99.90;;;;;;5051942;28;20048;-46
2023/03/23 05:44:50;;;;;;;35.57;4.40;;;9.40;99.90;;;;;;5053512;28;20032;-43
2023/03/23 05:47:16;;;;;;;36.50;4.72;;;9.40;99.90;;;;;;5035661;28;20040;-51
2023/03/23 05:49:42;;;;;;;33.05;5.07;;;9.40;99.90;;;;;;5053626;28;20112;-44
2023/03/23 05:52:08;;;;;;;36.50;4.90;;;9.50;99.90;;;;;;5053685;28;20070;-48
2023/03/23 05:54:34;;;;;;;36.15;4.47;;;9.50;99.90;;;;;;5048685;28;20104;-44
2023/03/23 05:57:00;;;;;;;39.95;5.15;;;9.60;99.90;;;;;;5034907;28;20025;-49
2023/03/23 05:59:25;;;;;;;41.28;5.63;;;9.60;99.90;;;;;;5036515;28;20509;-46
2023/03/23 06:01:53;;;;;;;43.78;7.38;;;9.60;99.90;;;;;;5035943;28;20132;-43
2023/03/23 06:04:20;;;;;;;44.20;5.65;;;9.60;99.90;;;;;;5038150;28;20108;-43
2023/03/23 06:06:46;;;;;;;34.95;4.60;;;9.60;99.90;;;;;;5042575;28;20021;-44
2023/03/23 06:09:11;;;;;;;37.03;5.18;;;9.60;99.90;;;;;;5053238;28;20158;-45
2023/03/23 06:11:37;;;;;;;34.15;5.32;;;9.60;99.90;;;;;;5053052;28;20100;-43
2023/03/23 06:14:03;;;;;;;40.25;5.10;;;9.60;99.90;;;;;;5053360;28;20043;-48
2023/03/23 06:16:29;;;;;;;38.05;5.78;;;9.70;99.90;;;;;;5053387;28;20369;-45
2023/03/23 06:18:56;;;;;;;38.97;5.32;;;9.70;99.90;;;;;;5031739;28;20435;-43
2023/03/23 06:21:22;;;;;;;39.10;5.43;;;9.80;99.90;;;;;;5032759;28;20033;-46
2023/03/23 06:23:48;;;;;;;35.75;5.38;;;9.80;99.90;;;;;;5022918;28;20092;-46
2023/03/23 06:26:17;;;;;;;39.78;5.53;;;9.90;99.90;;;;;;5029495;28;20395;-50
2023/03/23 06:28:43;;;;;;;35.10;4.50;;;10.00;99.90;;;;;;5033086;28;20468;-45
2023/03/23 06:31:09;;;;;;;29.10;4.30;;;10.10;99.90;;;;;;5031488;28;20036;-44
2023/03/23 06:33:37;;;;;;;42.35;5.88;;;10.10;99.90;;;;;;5033078;28;20025;-51
2023/03/23 06:36:04;;;;;;;46.15;5.10;;;10.10;99.90;;;;;;5032829;28;20091;-44
2023/03/23 06:38:30;;;;;;;33.42;4.75;;;10.20;99.90;;;;;;5018821;28;20125;-49
2023/03/23 06:40:56;;;;;;;31.42;5.25;;;10.20;99.90;;;;;;5021267;28;20489;-47
2023/03/23 06:43:23;;;;;;;28.77;5.43;;;10.30;99.90;;;;;;5029611;28;20033;-43
2023/03/23 06:45:50;;;;;;;39.35;5.55;;;10.30;99.90;;;;;;5032785;28;20021;-44
2023/03/23 06:48:16;;;;;;;35.08;4.72;;;10.30;99.90;;;;;;5032504;28;20029;-45
2023/03/23 06:50:46;;;;;;;40.67;5.47;;;10.30;99.90;;;;;;5032537;28;20029;-42
2023/03/23 06:53:12;;;;;;;36.08;4.75;;;10.40;99.90;;;;;;5032444;28;20037;-43
2023/03/23 06:55:38;;;;;;;40.13;6.63;;;10.40;99.90;;;;;;5031085;28;20064;-51
2023/03/23 06:58:05;;;;;;;33.25;6.30;;;10.40;99.90;;;;;;5032720;28;20025;-43
2023/03/23 07:00:32;;;;;;;32.33;5.60;;;10.40;99.90;;;;;;5032264;28;20286;-48
2023/03/23 07:02:58;;;;;;;38.47;5.82;;;10.40;99.90;;;;;;5020448;28;20041;-43
2023/03/23 07:05:25;;;;;;;32.83;4.10;;;10.40;99.90;;;;;;5032136;28;20026;-51
2023/03/23 07:07:51;;;;;;;40.13;5.10;;;10.50;99.90;;;;;;5032080;28;20025;-45
2023/03/23 07:10:17;;;;;;;34.20;5.20;;;10.50;99.90;;;;;;5032384;28;20134;-44
2023/03/23 07:12:43;;;;;;;28.83;3.95;;;10.60;99.90;;;;;;5032305;28;20026;-43
2023/03/23 07:15:10;;;;;;;29.60;4.80;;;10.60;99.90;;;;;;5020756;28;20390;-42
2023/03/23 07:17:37;;;;;;;32.35;5.05;;;10.60;99.90;;;;;;5030753;28;20490;-43
2023/03/23 07:20:04;;;;;;;41.15;5.68;;;10.60;99.90;;;;;;5051981;28;20025;-46
2023/03/23 07:22:30;;;;;;;45.90;5.50;;;10.70;99.90;;;;;;5052112;28;20116;-49
2023/03/23 07:24:56;;;;;;;39.72;5.95;;;10.70;99.90;;;;;;5052084;28;20104;-44
2023/03/23 07:27:22;;;;;;;39.55;5.20;;;10.70;99.90;;;;;;5051840;28;20123;-43
2023/03/23 07:29:47;;;;;;;29.80;4.80;;;10.80;99.90;;;;;;5051905;28;20017;-50
2023/03/23 07:32:13;;;;;;;36.03;5.55;;;10.70;99.90;;;;;;5050635;28;20025;-45
2023/03/23 07:34:39;;;;;;;35.28;5.38;;;10.80;99.90;;;;;;5037557;28;20410;-50
2023/03/23 07:37:05;;;;;;;29.73;4.97;;;10.90;99.90;;;;;;5037920;28;20029;-47
2023/03/23 07:39:31;;;;;;;27.33;4.03;;;10.90;99.90;;;;;;5041841;28;20383;-55
2023/03/23 07:41:57;;;;;;;27.58;4.38;;;11.00;99.90;;;;;;5038792;28;20073;-47
2023/03/23 07:44:23;;;;;;;33.33;4.03;;;11.00;99.90;;;;;;5043990;28;20048;-46
2023/03/23 07:46:49;;;;;;;34.08;5.55;;;11.10;99.90;;;;;;5038040;28;20425;-45
2023/03/23 07:49:15;;;;;;;26.30;4.85;;;11.10;99.90;;;;;;5042549;28;20079;-48
2023/03/23 07:51:41;;;;;;;45.40;5.10;;;11.00;99.90;;;;;;5039602;28;20025;-45
2023/03/23 07:54:07;;;;;;;28.52;4.85;;;11.00;99.90;;;;;;5040873;28;20405;-53
2023/03/23 07:56:36;;;;;;;25.45;4.80;;;11.00;99.90;;;;;;5041383;28;20025;-44
2023/03/23 07:59:04;;;;;;;35.63;4.85;;;11.10;99.90;;;;;;5043538;28;20484;-49
2023/03/23 08:01:30;;;;;;;32.55;4.90;;;11.10;99.90;;;;;;5046008;28;20029;-49
2023/03/23 08:03:57;;;;;;;32.67;4.63;;;11.10;99.90;;;;;;5045554;28;20028;-49
2023/03/23 08:06:24;;;;;;;32.58;5.85;;;11.10;99.90;;;;;;5033239;28;20082;-45
2023/03/23 08:08:50;;;;;;;34.85;4.18;;;11.40;99.90;;;;;;5044376;28;20101;-49
2023/03/23 08:11:16;;;;;;;33.58;4.65;;;11.60;99.90;;;;;;5047625;28;20502;-45
2023/03/23 08:13:42;;;;;;;28.27;4.07;;;11.60;99.90;;;;;;5044249;28;20021;-44
2023/03/23 08:16:09;;;;;;;22.50;3.35;;;11.60;99.90;;;;;;5050841;28;20030;-49
2023/03/23 08:18:35;;;;;;;19.88;4.78;;;11.70;99.90;;;;;;5050558;28;20059;-43
2023/03/23 08:21:04;;;;;;;25.77;4.32;;;11.80;99.90;;;;;;5050871;28;20021;-43
2023/03/23 08:23:33;;;;;;;24.35;4.03;;;12.20;99.90;;;;;;5050886;28;20036;-45
2023/03/23 08:25:59;;;;;;;24.70;5.00;;;12.40;99.90;;;;;;5050680;28;20021;-44
2023/03/23 08:28:25;;;;;;;28.85;4.10;;;12.40;99.90;;;;;;5050734;28;20557;-44
2023/03/23 08:30:50;;;;;;;24.25;4.20;;;12.40;99.90;;;;;;5049565;28;20112;-49
2023/03/23 08:33:17;;;;;;;26.40;4.40;;;12.40;99.90;;;;;;5043836;28;20033;-46
2023/03/23 08:35:43;;;;;;;26.58;4.18;;;12.30;99.90;;;;;;5032545;28;20529;-54
2023/03/23 08:38:11;;;;;;;30.17;3.88;;;12.40;99.90;;;;;;5033416;28;20029;-54
2023/03/23 08:40:37;;;;;;;23.42;3.85;;;12.80;99.90;;;;;;5032052;28;20029;-45
2023/03/23 08:43:02;;;;;;;28.05;4.32;;;13.50;99.90;;;;;;5033654;28;20065;-43
2023/03/23 08:45:28;;;;;;;24.08;3.40;;;13.80;99.90;;;;;;5032216;28;20024;-49
2023/03/23 08:47:55;;;;;;;31.20;4.95;;;13.70;99.90;;;;;;5033692;28;20068;-44
2023/03/23 08:50:24;;;;;;;28.02;3.47;;;13.50;99.90;;;;;;5032085;28;20032;-46
2023/03/23 08:52:51;;;;;;;22.73;3.92;;;13.50;99.90;;;;;;5033347;28;20025;-50
2023/03/23 08:55:17;;;;;;;23.88;3.95;;;13.20;99.90;;;;;;5032312;28;20057;-50
2023/03/23 08:57:44;;;;;;;23.73;3.58;;;13.30;99.90;;;;;;5032037;28;20103;-51
2023/03/23 09:00:16;;;;;;;21.50;4.47;;;13.80;99.90;;;;;;5035094;28;20053;-57
2023/03/23 09:02:44;;;;;;;29.45;4.72;;;13.70;99.90;;;;;;5044589;28;20042;-51
2023/03/23 09:05:10;;;;;;;26.30;3.92;;;13.50;99.90;;;;;;5045868;28;20053;-46
2023/03/23 09:07:41;;;;;;;25.38;4.47;;;13.40;99.90;;;;;;5036449;28;20545;-50
2023/03/23 09:10:07;;;;;;;29.73;5.20;;;13.10;99.90;;;;;;5036293;28;20024;-46
2023/03/23 09:12:33;;;;;;;25.67;4.82;;;13.30;99.90;;;;;;5054214;28;20024;-51
2023/03/23 09:14:59;;;;;;;26.70;6.30;;;14.00;99.90;;;;;;5054144;28;20025;-43
2023/03/23 09:17:25;;;;;;;25.17;4.60;;;15.30;99.90;;;;;;5054053;28;20032;-45
2023/03/23 09:19:51;;;;;;;21.17;3.75;;;15.90;99.90;;;;;;5014474;28;20442;-47
2023/03/23 09:22:19;;;;;;;27.40;4.13;;;16.00;99.90;;;;;;5014272;28;20070;-52
2023/03/23 09:24:46;;;;;;;20.60;3.88;;;16.30;99.90;;;;;;5013771;28;20022;-45
2023/03/23 09:27:11;;;;;;;34.03;4.63;;;16.50;99.90;;;;;;5014521;28;20113;-46
2023/03/23 09:29:38;;;;;;;29.88;4.47;;;16.10;99.90;;;;;;5014568;28;20057;-49
2023/03/23 09:32:03;;;;;;;26.73;4.47;;;15.30;99.90;;;;;;5013375;28;20022;-43
2023/03/23 09:34:29;;;;;;;28.25;4.50;;;14.30;99.90;;;;;;5014307;28;20041;-47
2023/03/23 09:36:55;;;;;;;26.55;4.38;;;13.50;99.90;;;;;;5009944;28;20027;-52
2023/03/23 09:39:20;;;;;;;24.42;4.22;;;13.10;99.90;;;;;;5014009;28;20384;-50
2023/03/23 09:42:11;;;;;;;27.35;4.03;;;13.10;99.90;;;;;;5013846;28;20048;-48
2023/03/23 09:44:50;;;;;;;26.25;3.90;;;13.20;99.90;;;;;;5009227;28;20087;-43
2023/03/23 09:47:33;;;;;;;29.07;4.60;;;13.30;99.90;;;;;;5013988;28;20026;-43
2023/03/23 09:50:15;;;;;;;22.33;3.75;;;13.50;99.90;;;;;;5013456;28;20022;-50
2023/03/23 09:53:01;;;;;;;29.88;4.15;;;13.80;99.90;;;;;;5013483;28;20395;-54
2023/03/23 09:55:28;;;;;;;21.60;4.78;;;14.30;99.90;;;;;;5007849;28;20047;-51
2023/03/23 09:58:12;;;;;;;21.80;3.58;;;15.20;99.90;;;;;;5013348;28;20537;-48
2023/03/23 10:00:53;;;;;;;24.50;3.90;;;15.40;99.90;;;;;;5007803;28;20685;-43
2023/03/23 10:03:27;;;;;;;25.33;4.57;;;15.60;99.90;;;;;;5012945;28;20109;-52
2023/03/23 10:05:54;;;;;;;22.95;4.53;;;15.20;99.90;;;;;;5010110;28;20108;-53
2023/03/23 10:08:31;;;;;;;28.88;5.20;;;15.60;99.90;;;;;;5012928;28;20026;-49
2023/03/23 10:11:16;;;;;;;26.65;4.35;;;16.10;99.90;;;;;;5011538;28;20026;-56
2023/03/23 10:14:10;;;;;;;21.85;3.72;;;15.30;99.90;;;;;;5012982;28;20025;-43
2023/03/23 10:16:47;;;;;;;22.80;3.80;;;15.10;99.90;;;;;;5001797;28;20022;-44
2023/03/23 10:19:31;;;;;;;19.33;3.80;;;15.40;99.90;;;;;;5042432;28;20049;-51
2023/03/23 10:22:03;;;;;;;21.27;3.47;;;16.90;99.90;;;;;;5052660;28;20029;-46
2023/03/23 10:24:55;;;;;;;22.83;3.67;;;18.50;99.90;;;;;;5035121;28;20494;-50
2023/03/23 10:27:32;;;;;;;18.77;3.60;;;19.40;99.00;;;;;;5010237;28;20029;-55
2023/03/23 10:30:14;;;;;;;20.08;3.88;;;19.30;96.40;;;;;;5040744;28;20063;-46
2023/03/23 10:33:02;;;;;;;19.15;4.30;;;18.90;95.80;;;;;;5050610;28;20039;-47
2023/03/23 10:35:43;;;;;;;17.42;3.85;;;18.40;96.00;;;;;;5033854;28;20032;-49
2023/03/23 10:38:26;;;;;;;24.50;4.90;;;17.50;97.20;;;;;;5052259;28;20021;-44
2023/03/23 10:40:58;;;;;;;18.75;3.35;;;16.50;98.90;;;;;;5052532;28;20041;-52
2023/03/23 10:43:24;;;;;;;24.23;4.05;;;17.10;99.90;;;;;;5032842;28;20525;-45
2023/03/23 10:46:03;;;;;;;26.20;4.55;;;17.50;98.40;;;;;;5048382;28;20013;-45
2023/03/23 10:48:38;;;;;;;25.90;5.07;;;17.20;98.90;;;;;;5045522;28;20021;-43
2023/03/23 10:51:09;;;;;;;25.35;3.90;;;17.50;98.10;;;;;;5022696;28;20065;-45
2023/03/23 10:53:37;;;;;;;23.13;4.20;;;18.00;98.40;;;;;;5037737;28;20018;-55
2023/03/23 10:56:05;;;;;;;28.93;4.73;;;18.40;97.10;;;;;;5041415;28;20470;-44
2023/03/23 10:58:33;;;;;;;19.05;3.90;;;17.80;96.80;;;;;;5043942;28;20104;-43
2023/03/23 11:01:01;;;;;;;23.58;4.18;;;18.40;98.00;;;;;;5039287;28;20044;-52
2023/03/23 11:03:40;;;;;;;19.27;3.90;;;18.90;96.00;;;;;;5050148;28;20370;-49
2023/03/23 11:06:09;;;;;;;19.90;3.92;;;18.60;96.40;;;;;;5051946;28;20017;-46
2023/03/23 11:08:38;;;;;;;28.67;5.05;;;18.80;96.00;;;;;;5034234;28;20029;-52
2023/03/23 11:11:18;;;;;;;;;;;18.80;95.30;;;;;;5052210;28;20028;-53
2023/03/23 11:13:45;;;;;;;;;;;19.30;94.60;;;;;;5051245;28;19915;-53
2023/03/23 11:16:21;;;;;;;25.30;4.53;;;18.90;95.70;;;;;;5051645;28;19969;-51
2023/03/23 11:18:47;;;;;;;23.50;4.15;;;18.90;94.60;;;;;;5033899;28;20517;-48
2023/03/23 11:21:14;;;;;;;26.88;5.10;;;18.10;95.40;;;;;;5035315;28;20033;-45
2023/03/23 11:23:42;;;;;;;26.50;4.57;;;17.30;97.50;;;;;;5042965;28;20039;-53
2023/03/23 11:26:31;;;;;;;19.77;4.10;;;17.10;97.50;;;;;;5019608;28;20116;-45
2023/03/23 11:29:13;;;;;;;22.08;4.70;;;17.90;97.00;;;;;;5043918;28;20044;-50
2023/03/23 11:31:42;;;;;;;28.48;5.65;;;18.90;95.30;;;;;;5044255;28;20363;-45
2023/03/23 11:34:17;;;;;;;22.23;4.47;;;19.00;95.30;;;;;;5044370;28;20029;-50
2023/03/23 11:36:49;;;;;;;27.38;4.10;;;19.50;93.80;;;;;;5039593;28;20049;-50
2023/03/23 11:39:33;;;;;;;27.77;5.97;;;19.30;92.70;;;;;;5043849;28;20104;-49
2023/03/23 11:42:01;;;;;;;24.58;4.68;;;18.40;94.60;;;;;;5040483;28;20443;-44
2023/03/23 11:44:41;;;;;;;27.90;5.33;;;18.40;94.40;;;;;;5043369;28;20079;-54
2023/03/23 11:47:18;;;;;;;;;;;18.00;95.00;;;;;;5041820;28;20045;-56
2023/03/23 11:50:03;;;;;;;21.60;4.35;;;17.60;96.60;;;;;;5042599;28;19987;-56
2023/03/23 11:52:46;;;;;;;23.88;4.55;;;18.90;93.60;;;;;;5044620;28;20497;-50
2023/03/23 11:55:19;;;;;;;29.75;4.75;;;19.60;92.60;;;;;;5040274;28;20032;-53
2023/03/23 11:57:44;;;;;;;20.02;4.45;;;18.90;92.30;;;;;;5037636;28;20125;-52
2023/03/23 12:00:19;;;;;;;25.10;4.75;;;18.00;94.20;;;;;;5041318;28;20033;-45
2023/03/23 12:03:25;;;;;;;20.00;3.85;;;18.10;95.20;;;;;;5044787;28;20398;-47
2023/03/23 12:06:07;;;;;;;25.30;4.55;;;18.20;94.30;;;;;;5045366;28;20028;-49
2023/03/23 12:09:26;;;;;;;27.90;5.57;;;18.90;94.60;;;;;;5039102;28;20390;-51
2023/03/23 12:12:10;;;;;;;27.55;4.78;;;18.50;93.40;;;;;;5000820;28;20393;-51
2023/03/23 12:15:17;;;;;;;24.08;4.10;;;18.50;93.90;;;;;;5046239;28;20051;-52
2023/03/23 12:18:01;;;;;;;26.48;5.70;;;18.70;93.70;;;;;;4988366;28;20037;-51
2023/03/23 12:20:41;;;;;;;20.10;5.40;;;18.70;93.60;;;;;;4989416;28;20113;-52
2023/03/23 12:23:19;;;;;;;22.88;3.90;;;19.40;93.00;;;;;;5032150;28;20139;-53
2023/03/23 12:25:58;;;;;;;22.83;4.70;;;20.00;91.70;;;;;;5050718;28;20110;-43
2023/03/23 12:28:50;;;;;;;25.58;4.75;;;20.80;88.20;;;;;;5050693;28;20036;-44
2023/03/23 12:31:26;;;;;;;24.13;5.10;;;19.60;89.20;;;;;;5050629;28;20021;-48
2023/03/23 12:33:55;;;;;;;24.02;4.50;;;18.60;91.60;;;;;;5050882;28;20035;-53
2023/03/23 12:36:33;;;;;;;;;;;18.40;91.90;;;;;;5051071;28;20043;-53
2023/03/23 12:39:34;;;;;;;27.35;4.38;;;17.60;92.70;;;;;;5049808;28;19904;-47
2023/03/23 12:42:08;;;;;;;26.00;4.30;;;16.50;94.30;;;;;;5039297;28;20032;-51
2023/03/23 12:44:52;;;;;;;28.70;4.40;;;15.80;96.00;;;;;;5050346;28;20025;-53
2023/03/23 12:47:32;;;;;;;21.92;4.07;;;15.10;96.80;;;;;;5050770;28;20056;-48
2023/03/23 12:50:03;;;;;;;23.55;4.05;;;14.90;98.70;;;;;;5050794;28;20029;-51
2023/03/23 12:52:45;;;;;;;20.55;3.63;;;14.60;99.90;;;;;;5042741;28;20021;-50
2023/03/23 12:55:17;;;;;;;19.25;3.50;;;14.70;99.90;;;;;;5050587;28;20090;-45
2023/03/23 12:57:53;;;;;;;19.92;3.47;;;14.50;99.90;;;;;;5050239;28;20085;-50